Time;durP1;ratioP1;P1;durP2;ratioP2;P2;SDS_P1;SDS_P2;PMS_P1;PMS_P2;Temp;Humidity;BMP_temperature;BMP_pressure;BME280_temperature;BME280_humidity;BME280_pressure;Samples;Min_cycle;Max_cycle;Signal;HPM_P1;HPM_P2
2023/07/17 00:00:11;;;;;;;1.23;1.13;;;;;;;23.78;73.15;99551.84;5114243;28;20055;-62
2023/07/17 00:02:41;;;;;;;2.72;1.65;;;;;;;23.75;73.56;99551.19;5114405;28;20055;-62
2023/07/17 00:05:11;;;;;;;1.73;1.52;;;;;;;23.75;73.41;99546.84;5114172;28;20134;-63
2023/07/17 00:07:41;;;;;;;1.15;1.05;;;;;;;23.72;73.90;99547.00;5114209;28;20465;-63
2023/07/17 00:10:11;;;;;;;3.95;2.00;;;;;;;23.70;73.76;99543.66;5114045;28;20048;-63
2023/07/17 00:12:40;;;;;;;2.75;1.73;;;;;;;23.64;73.87;99530.94;5113955;28;20093;-63
2023/07/17 00:15:10;;;;;;;1.85;1.70;;;;;;;23.65;73.94;99535.25;5114327;28;20096;-63
2023/07/17 00:17:39;;;;;;;1.23;1.13;;;;;;;23.67;73.89;99533.38;5113904;28;20047;-62
2023/07/17 00:20:11;;;;;;;;;;;;;;;23.74;73.86;99534.72;5114415;28;20126;-63
2023/07/17 00:22:42;;;;;;;1.25;1.15;;;;;;;23.83;73.62;99543.75;5113960;28;19926;-62
2023/07/17 00:25:11;;;;;;;1.90;1.33;;;;;;;23.89;73.38;99536.47;5114257;28;20075;-62
2023/07/17 00:27:40;;;;;;;1.33;1.00;;;;;;;23.93;72.95;99540.56;5114249;28;20112;-62
2023/07/17 00:30:09;;;;;;;1.50;1.38;;;;;;;23.96;72.53;99540.38;5113257;28;20072;-62
2023/07/17 00:32:38;;;;;;;2.42;0.98;;;;;;;23.99;72.16;99534.97;5112633;28;20409;-62
2023/07/17 00:35:08;;;;;;;;;;;;;;;24.00;71.98;99544.50;5114258;28;20047;-62
2023/07/17 00:37:38;;;;;;;0.82;0.80;;;;;;;23.93;71.99;99550.97;5113739;28;19920;-62
2023/07/17 00:40:08;;;;;;;3.38;2.20;;;;;;;23.93;71.96;99545.78;5114121;28;20047;-63
2023/07/17 00:42:38;;;;;;;1.25;1.08;;;;;;;23.87;71.99;99540.88;5112819;28;20039;-62
2023/07/17 00:45:09;;;;;;;1.13;0.90;;;;;;;23.81;72.25;99541.25;5114083;28;20052;-62
2023/07/17 00:47:38;;;;;;;1.23;1.10;;;;;;;23.75;72.28;99544.22;5114372;28;20046;-63
2023/07/17 00:50:09;;;;;;;2.00;1.30;;;;;;;23.72;72.52;99547.00;5112728;28;20051;-63
2023/07/17 00:52:41;;;;;;;1.35;1.15;;;;;;;23.75;72.43;99544.22;5113957;28;20552;-63
2023/07/17 00:55:10;;;;;;;3.45;2.35;;;;;;;23.73;72.29;99553.06;5112542;28;20044;-63
2023/07/17 00:57:40;;;;;;;2.45;1.50;;;;;;;23.68;72.49;99550.69;5112804;28;20047;-63
2023/07/17 01:00:12;;;;;;;2.17;1.77;;;;;;;23.63;72.69;99542.31;5112416;28;20138;-63
2023/07/17 01:02:45;;;;;;;1.25;1.13;;;;;;;23.66;72.62;99541.28;5113583;28;20054;-63
2023/07/17 01:05:14;;;;;;;1.75;1.50;;;;;;;23.71;72.71;99534.88;5112305;28;20054;-62
2023/07/17 01:07:45;;;;;;;2.47;1.95;;;;;;;23.68;73.01;99540.25;5113538;28;20496;-62
2023/07/17 01:10:14;;;;;;;3.28;1.63;;;;;;;23.62;73.21;99545.81;5113538;28;20047;-62
2023/07/17 01:12:44;;;;;;;1.83;1.38;;;;;;;23.66;73.12;99552.53;5113432;28;20086;-62
2023/07/17 01:15:13;;;;;;;3.65;1.90;;;;;;;23.67;72.82;99549.03;5113514;28;20378;-62
2023/07/17 01:17:42;;;;;;;2.65;1.55;;;;;;;23.70;72.92;99543.66;5112284;28;20092;-63
2023/07/17 01:20:12;;;;;;;6.18;1.83;;;;;;;23.70;73.02;99554.06;5115432;28;20581;-63
2023/07/17 01:22:53;;;;;;;1.35;1.25;;;;;;;23.70;73.13;99556.69;5116185;28;20074;-63
2023/07/17 01:25:22;;;;;;;1.33;0.88;;;;;;;23.71;72.74;99560.94;5117091;28;20102;-62
2023/07/17 01:27:51;;;;;;;1.65;1.50;;;;;;;23.71;72.87;99566.16;5115928;28;20126;-62
2023/07/17 01:30:23;;;;;;;1.77;1.58;;;;;;;23.71;72.56;99571.38;5117120;28;20092;-62
2023/07/17 01:32:52;;;;;;;1.75;1.08;;;;;;;23.70;72.42;99569.72;5116956;28;20048;-62
2023/07/17 01:35:21;;;;;;;3.22;1.85;;;;;;;23.73;72.41;99569.50;5116814;28;20036;-62
2023/07/17 01:37:51;;;;;;;1.30;1.08;;;;;;;23.74;72.28;99575.56;5115981;28;20043;-62
2023/07/17 01:40:20;;;;;;;2.10;1.70;;;;;;;23.73;72.53;99569.50;5116820;28;20051;-62
2023/07/17 01:42:49;;;;;;;2.10;1.08;;;;;;;23.73;72.66;99574.72;5115640;28;20059;-62
2023/07/17 01:45:18;;;;;;;1.08;0.98;;;;;;;23.69;72.88;99568.00;5116599;28;20108;-62
2023/07/17 01:47:50;;;;;;;1.80;1.70;;;;;;;23.66;72.98;99576.00;5115757;28;20053;-62
2023/07/17 01:50:19;;;;;;;3.45;1.60;;;;;;;23.66;73.22;99573.38;5116830;28;20051;-62
2023/07/17 01:52:48;;;;;;;1.77;1.58;;;;;;;23.65;72.97;99571.72;5116559;28;20054;-62
2023/07/17 01:55:18;;;;;;;1.80;1.30;;;;;;;23.56;73.23;99580.06;5116452;28;20047;-62
2023/07/17 01:57:47;;;;;;;1.80;1.63;;;;;;;23.47;73.76;99590.97;5116436;28;20067;-62
2023/07/17 02:00:17;;;;;;;1.02;0.93;;;;;;;23.44;73.66;99588.56;5116352;28;20517;-62
2023/07/17 02:02:47;;;;;;;1.42;1.13;;;;;;;23.43;73.99;99583.41;5115245;28;20100;-62
2023/07/17 02:05:16;;;;;;;2.63;1.85;;;;;;;23.32;74.37;99591.78;5116293;28;20070;-62
2023/07/17 02:07:46;;;;;;;11.65;2.10;;;;;;;23.21;74.52;99596.72;5116592;28;20051;-62
2023/07/17 02:10:15;;;;;;;3.00;2.35;;;;;;;23.17;74.83;99595.22;5116257;27;20096;-62
2023/07/17 02:12:46;;;;;;;1.73;1.23;;;;;;;23.06;75.22;99593.16;5115979;28;20047;-62
2023/07/17 02:15:15;;;;;;;3.80;1.55;;;;;;;23.02;75.35;99585.59;5116287;28;20067;-62
2023/07/17 02:17:44;;;;;;;1.60;1.38;;;;;;;22.97;75.68;99582.41;5114946;28;20489;-62
2023/07/17 02:20:13;;;;;;;3.00;1.77;;;;;;;22.97;75.70;99571.97;5115908;28;20500;-62
2023/07/17 02:22:42;;;;;;;2.58;1.63;;;;;;;23.03;75.52;99577.72;5114746;28;20092;-62
2023/07/17 02:25:12;;;;;;;1.77;1.42;;;;;;;23.10;75.45;99568.66;5115956;28;20485;-62
2023/07/17 02:27:41;;;;;;;4.18;2.10;;;;;;;23.14;75.35;99564.13;5115867;28;20081;-62
2023/07/17 02:30:12;;;;;;;1.48;1.33;;;;;;;23.23;75.18;99571.44;5115846;28;20180;-62
2023/07/17 02:32:41;;;;;;;1.70;1.48;;;;;;;23.25;75.03;99572.22;5131819;27;20043;-62
2023/07/17 02:35:10;;;;;;;2.35;1.35;;;;;;;23.22;75.21;99572.38;5115674;28;20069;-62
2023/07/17 02:37:39;;;;;;;3.35;1.85;;;;;;;23.24;75.16;99575.72;5115593;28;20050;-62
2023/07/17 02:40:12;;;;;;;3.10;2.10;;;;;;;23.27;75.12;99580.78;5115536;28;20122;-62
2023/07/17 02:42:41;;;;;;;2.00;1.60;;;;;;;23.32;74.78;99573.56;5115618;28;20347;-62
2023/07/17 02:45:11;;;;;;;2.28;2.00;;;;;;;23.26;74.80;99572.13;5114373;28;20046;-62
2023/07/17 02:47:40;;;;;;;1.15;1.05;;;;;;;23.25;74.89;99567.81;5115815;28;20395;-62
2023/07/17 02:50:10;;;;;;;1.30;1.10;;;;;;;23.20;74.94;99569.00;5115378;28;20489;-62
2023/07/17 02:52:39;;;;;;;2.92;1.48;;;;;;;23.19;75.03;99577.72;5114613;28;20162;-62
2023/07/17 02:55:09;;;;;;;1.73;1.42;;;;;;;23.23;74.84;99574.03;5114511;28;20111;-62
2023/07/17 02:57:38;;;;;;;;;;;;;;;23.21;74.98;99575.88;5115931;28;20514;-62
2023/07/17 03:00:09;;;;;;;2.03;1.58;;;;;;;23.19;74.89;99573.38;5115133;28;19923;-62
2023/07/17 03:02:41;;;;;;;2.00;1.35;;;;;;;23.17;75.12;99569.16;5114282;28;20097;-62
2023/07/17 03:05:13;;;;;;;2.03;0.95;;;;;;;23.18;74.83;99571.69;5115305;27;20128;-62
2023/07/17 03:07:45;;;;;;;1.52;1.20;;;;;;;23.14;74.86;99574.53;5115097;28;20062;-62
2023/07/17 03:10:14;;;;;;;1.85;1.20;;;;;;;23.14;74.86;99574.53;5115087;28;20089;-62
2023/07/17 03:12:43;;;;;;;1.67;1.25;;;;;;;23.13;74.76;99575.47;5113531;28;20097;-62
2023/07/17 03:15:13;;;;;;;1.65;1.52;;;;;;;23.15;74.60;99581.44;5115039;28;20481;-62
2023/07/17 03:17:44;;;;;;;1.00;0.93;;;;;;;23.09;74.76;99576.53;5114320;28;20042;-62
2023/07/17 03:20:14;;;;;;;2.45;1.75;;;;;;;23.11;74.78;99570.31;5113649;28;20488;-62
2023/07/17 03:22:43;;;;;;;1.25;1.00;;;;;;;;;;5114909;28;20043;-63
2023/07/17 03:25:12;;;;;;;2.42;1.55;;;;;;;23.13;74.81;99559.84;5115062;28;20043;-62
2023/07/17 03:27:41;;;;;;;1.80;1.60;;;;;;;23.17;74.99;99561.34;5114688;28;20040;-62
2023/07/17 03:30:10;;;;;;;2.45;1.55;;;;;;;23.20;75.08;99569.00;5114638;28;20050;-62
2023/07/17 03:32:39;;;;;;;1.23;1.10;;;;;;;23.25;74.87;99561.78;5114676;28;20050;-62
2023/07/17 03:35:11;;;;;;;1.67;1.45;;;;;;;23.29;74.83;99565.91;5113421;28;20100;-62
2023/07/17 03:37:40;;;;;;;1.45;1.25;;;;;;;23.33;74.92;99564.81;5114548;28;20052;-63
2023/07/17 03:40:11;;;;;;;2.30;1.67;;;;;;;23.34;74.98;99572.56;5114560;28;20035;-62
2023/07/17 03:42:39;;;;;;;2.25;1.77;;;;;;;23.36;75.10;99575.09;5114155;28;20104;-62
2023/07/17 03:45:09;;;;;;;1.45;1.25;;;;;;;23.40;74.98;99567.94;5114754;28;20119;-62
2023/07/17 03:47:40;;;;;;;0.73;0.73;;;;;;;23.42;74.72;99564.31;5114404;28;20075;-63
2023/07/17 03:50:11;;;;;;;4.50;2.00;;;;;;;23.45;74.72;99563.31;5113088;28;20054;-62
2023/07/17 03:52:40;;;;;;;1.65;1.27;;;;;;;23.47;74.43;99562.31;5113168;28;20043;-62
2023/07/17 03:55:09;;;;;;;2.03;1.73;;;;;;;23.49;74.36;99564.84;5114300;28;20039;-62
2023/07/17 03:57:38;;;;;;;1.85;1.40;;;;;;;23.46;74.74;99565.84;5114573;28;20127;-62
2023/07/17 04:00:13;;;;;;;3.80;1.73;;;;;;;23.50;74.76;99564.75;5114764;28;20039;-62
2023/07/17 04:02:43;;;;;;;1.65;1.48;;;;;;;23.53;74.54;99561.97;5114224;28;20051;-62
2023/07/17 04:05:28;;;;;;;1.83;1.25;;;;;;;23.56;74.41;99550.56;5114231;28;20043;-62
2023/07/17 04:07:58;;;;;;;2.58;1.95;;;;;;;23.56;74.26;99550.56;5113255;28;20411;-62
2023/07/17 04:10:28;;;;;;;3.50;2.33;;;;;;;23.58;74.23;99561.72;5113154;28;20130;-62
2023/07/17 04:12:58;;;;;;;1.20;1.10;;;;;;;23.56;74.21;99561.81;5129868;27;20468;-63
2023/07/17 04:15:30;;;;;;;3.00;1.60;;;;;;;23.57;74.32;99568.69;5114200;28;20105;-62
2023/07/17 04:17:59;;;;;;;3.17;2.08;;;;;;;23.59;74.35;99582.47;5114047;28;20048;-62
2023/07/17 04:20:29;;;;;;;2.40;1.70;;;;;;;23.60;74.37;99578.13;5112912;28;20039;-62
2023/07/17 04:22:59;;;;;;;1.40;1.20;;;;;;;23.60;74.38;99589.38;5114027;28;20489;-62
2023/07/17 04:25:27;;;;;;;;;;;;;;;23.64;74.36;99585.66;5113549;28;20066;-62
2023/07/17 04:27:56;;;;;;;1.20;1.10;;;;;;;23.69;74.38;99588.88;5112754;28;19973;-62
2023/07/17 04:30:25;;;;;;;;;;;;;;;23.81;74.24;99582.97;5113372;28;20119;-62
2023/07/17 04:32:55;;;;;;;2.63;1.87;;;;;;;23.90;73.94;99587.66;5113911;28;19919;-62
2023/07/17 04:35:23;;;;;;;1.83;1.33;;;;;;;23.96;73.88;99576.06;5112638;28;20039;-62
2023/07/17 04:37:56;;;;;;;2.47;1.35;;;;;;;24.02;73.70;99576.53;5113835;28;20040;-62
2023/07/17 04:40:25;;;;;;;2.10;1.90;;;;;;;24.12;73.37;99586.47;5112865;28;20131;-62
2023/07/17 04:42:54;;;;;;;1.35;1.25;;;;;;;24.26;73.04;99583.91;5113777;28;20040;-62
2023/07/17 04:45:24;;;;;;;1.83;1.48;;;;;;;24.36;72.43;99582.44;5112644;28;20071;-62
2023/07/17 04:47:54;;;;;;;2.38;2.13;;;;;;;24.46;72.34;99586.19;5113801;28;20050;-62
2023/07/17 04:50:26;;;;;;;1.25;1.10;;;;;;;24.59;71.51;99581.94;5113672;28;20396;-61
2023/07/17 04:52:58;;;;;;;1.77;1.65;;;;;;;24.72;71.29;99576.78;5112445;28;20079;-62
2023/07/17 04:55:30;;;;;;;1.60;1.38;;;;;;;24.83;70.66;99590.09;5115506;28;20553;-61
2023/07/17 04:57:59;;;;;;;2.05;1.50;;;;;;;24.93;70.19;99592.03;5116430;28;20126;-62
2023/07/17 05:00:29;;;;;;;1.77;1.52;;;;;;;25.06;70.10;99592.97;5116310;28;20048;-62
2023/07/17 05:02:58;;;;;;;4.47;2.50;;;;;;;25.16;69.84;99588.88;5116606;28;20040;-62
2023/07/17 05:05:29;;;;;;;1.75;1.27;;;;;;;25.26;69.41;99584.75;5117720;28;20074;-62
2023/07/17 05:08:00;;;;;;;2.55;1.60;;;;;;;25.35;69.00;99598.19;5117674;28;20377;-61
2023/07/17 05:10:30;;;;;;;1.25;1.15;;;;;;;25.41;68.49;99589.97;5117460;28;20444;-61
2023/07/17 05:12:59;;;;;;;;;;;;;;;25.51;68.44;99594.53;5117655;28;20040;-62
2023/07/17 05:15:27;;;;;;;3.20;1.17;;;;;;;25.68;67.80;99601.31;5116475;28;19919;-62
2023/07/17 05:17:56;;;;;;;;;;;;;;;25.82;67.43;99603.88;5116511;28;20049;-62
2023/07/17 05:20:26;;;;;;;2.08;1.85;;;;;;;25.89;66.85;99599.94;5117116;28;19930;-62
2023/07/17 05:22:57;;;;;;;2.70;2.03;;;;;;;25.96;66.90;99590.75;5117086;28;20047;-62
2023/07/17 05:25:27;;;;;;;1.45;1.30;;;;;;;26.15;66.54;99595.66;5116077;28;20048;-62
2023/07/17 05:27:56;;;;;;;2.13;1.67;;;;;;;26.27;66.18;99598.31;5117148;28;20126;-62
2023/07/17 05:30:25;;;;;;;4.22;2.47;;;;;;;26.38;65.73;99593.19;5117305;28;20043;-62
2023/07/17 05:32:55;;;;;;;1.58;1.48;;;;;;;26.46;65.21;99590.91;5116959;28;20123;-62
2023/07/17 05:35:24;;;;;;;;;;;;;;;26.57;65.01;99592.78;5116207;28;20079;-62
2023/07/17 05:37:54;;;;;;;1.80;1.08;;;;;;;26.67;65.02;99598.22;5116844;28;19942;-62
2023/07/17 05:40:24;;;;;;;2.33;1.50;;;;;;;26.76;64.53;99597.63;5117450;28;20047;-62
2023/07/17 05:42:54;;;;;;;2.45;1.48;;;;;;;26.87;64.20;99595.13;5115553;28;20044;-62
2023/07/17 05:45:25;;;;;;;2.00;1.23;;;;;;;26.96;64.05;99594.50;5117001;28;20500;-62
2023/07/17 05:47:54;;;;;;;2.25;1.45;;;;;;;27.04;63.51;99592.19;5115787;28;20043;-62
2023/07/17 05:50:23;;;;;;;1.70;1.60;;;;;;;27.11;63.47;99583.78;5116635;28;20552;-62
2023/07/17 05:52:52;;;;;;;3.22;1.92;;;;;;;27.23;63.50;99588.16;5115589;28;20040;-62
2023/07/17 05:55:21;;;;;;;3.90;2.80;;;;;;;27.31;62.98;99578.94;5113878;27;20050;-62
2023/07/17 05:57:51;;;;;;;1.48;1.38;;;;;;;27.39;62.46;99572.22;5103378;28;20086;-63
2023/07/17 06:00:22;;;;;;;1.55;1.10;;;;;;;27.56;62.41;99579.72;5094843;28;20046;-62
2023/07/17 06:02:51;;;;;;;1.67;1.38;;;;;;;27.65;62.28;99573.81;5096269;28;20040;-62
2023/07/17 06:05:20;;;;;;;1.95;1.40;;;;;;;27.69;61.91;99569.19;5102982;28;20090;-62
2023/07/17 06:07:49;;;;;;;2.65;1.65;;;;;;;27.81;61.79;99563.84;5096159;28;20067;-62
2023/07/17 06:10:18;;;;;;;1.38;1.27;;;;;;;27.90;61.45;99563.22;5095858;28;20105;-62
2023/07/17 06:12:47;;;;;;;1.77;1.65;;;;;;;27.96;61.27;99555.81;5095585;28;20479;-62
2023/07/17 06:15:16;;;;;;;2.03;1.50;;;;;;;28.00;60.87;99562.56;5106491;28;20031;-62
2023/07/17 06:17:47;;;;;;;2.70;2.03;;;;;;;28.00;60.55;99563.41;5099612;28;20036;-62
2023/07/17 06:20:17;;;;;;;4.63;2.33;;;;;;;28.05;60.70;99568.31;5095697;28;20071;-62
2023/07/17 06:22:46;;;;;;;1.95;1.48;;;;;;;28.15;60.74;99564.84;5095499;28;20136;-62
2023/07/17 06:25:15;;;;;;;2.25;1.90;;;;;;;28.24;60.53;99565.97;5096157;28;20094;-62
2023/07/17 06:27:44;;;;;;;2.20;1.63;;;;;;;28.35;60.21;99568.63;5095463;28;20040;-62
2023/07/17 06:30:13;;;;;;;6.22;2.03;;;;;;;28.46;60.20;99568.63;5095304;28;20050;-62
2023/07/17 06:32:43;;;;;;;1.95;1.75;;;;;;;28.54;59.79;99574.16;5106986;28;20089;-62
2023/07/17 06:35:13;;;;;;;1.60;1.48;;;;;;;28.64;59.72;99569.91;5115688;27;20052;-62
2023/07/17 06:37:43;;;;;;;10.10;3.10;;;;;;;28.72;59.24;99590.34;5115934;28;20044;-62
2023/07/17 06:40:12;;;;;;;2.33;1.85;;;;;;;28.77;58.86;99586.38;5114500;28;20071;-62
2023/07/17 06:42:40;;;;;;;;;;;;;;;28.87;59.42;99586.50;5115830;28;20039;-62
2023/07/17 06:45:10;;;;;;;0.70;0.70;;;;;;;29.01;59.28;99589.75;5115511;28;19930;-62
2023/07/17 06:47:39;;;;;;;2.08;1.08;;;;;;;29.07;58.25;99581.38;5115686;28;20489;-62
2023/07/17 06:50:09;;;;;;;5.82;1.77;;;;;;;29.12;57.95;99581.88;5099268;28;20032;-62
2023/07/17 06:52:41;;;;;;;1.73;1.55;;;;;;;29.25;58.23;99573.84;5112206;27;20428;-63
2023/07/17 06:55:10;;;;;;;2.67;2.08;;;;;;;29.40;57.58;99574.44;5094859;28;20106;-62
2023/07/17 06:57:39;;;;;;;1.35;1.25;;;;;;;29.49;57.10;99579.00;5094878;28;20119;-62
2023/07/17 07:00:09;;;;;;;2.42;1.90;;;;;;;29.55;56.86;99578.47;5095096;28;20111;-62
2023/07/17 07:02:41;;;;;;;1.80;1.50;;;;;;;29.66;56.40;99581.06;5100457;28;20054;-62
2023/07/17 07:05:10;;;;;;;2.53;1.75;;;;;;;29.80;56.01;99575.59;5098297;28;20048;-62
2023/07/17 07:07:41;;;;;;;2.05;1.85;;;;;;;29.89;56.23;99571.34;5095053;28;20119;-62
2023/07/17 07:10:10;;;;;;;1.85;1.58;;;;;;;29.96;55.63;99567.25;5094846;28;20455;-63
2023/07/17 07:12:38;;;;;;;1.85;1.52;;;;;;;30.06;55.17;99576.91;5094640;28;20052;-63
2023/07/17 07:15:09;;;;;;;5.50;1.63;;;;;;;30.15;55.11;99568.25;5094601;28;20040;-63
2023/07/17 07:17:38;;;;;;;2.78;1.52;;;;;;;30.22;54.68;99564.13;5093819;28;20071;-62
2023/07/17 07:20:08;;;;;;;1.40;1.17;;;;;;;30.33;54.76;99574.63;5094788;28;20032;-62
2023/07/17 07:22:37;;;;;;;1.63;1.27;;;;;;;30.42;54.69;99571.25;5098076;28;20119;-63
2023/07/17 07:25:09;;;;;;;3.35;1.75;;;;;;;30.36;53.70;99569.09;5094360;28;20040;-63
2023/07/17 07:27:38;;;;;;;1.02;0.90;;;;;;;30.39;54.06;99576.75;5094659;28;20044;-63
2023/07/17 07:30:08;;;;;;;2.50;1.80;;;;;;;30.45;53.81;99565.69;5094166;28;20040;-63
2023/07/17 07:32:39;;;;;;;1.33;1.13;;;;;;;30.44;53.62;99585.13;5105013;28;20036;-63
2023/07/17 07:35:08;;;;;;;1.13;1.02;;;;;;;30.54;53.72;99579.91;5114592;28;20135;-63
2023/07/17 07:37:38;;;;;;;2.40;1.58;;;;;;;30.61;53.40;99580.22;5114493;28;20035;-63
2023/07/17 07:40:11;;;;;;;1.77;1.52;;;;;;;30.67;53.60;99571.78;5114470;28;20435;-63
2023/07/17 07:42:41;;;;;;;1.52;1.40;;;;;;;30.78;53.46;99576.97;5106331;28;20130;-63
2023/07/17 07:45:11;;;;;;;1.33;1.17;;;;;;;30.82;52.78;99568.69;5093735;28;20094;-63
2023/07/17 07:47:40;;;;;;;4.32;1.58;;;;;;;30.91;52.53;99570.53;5093013;28;20043;-62
2023/07/17 07:50:11;;;;;;;1.25;0.98;;;;;;;31.04;52.39;99573.81;5093968;28;20056;-63
2023/07/17 07:52:42;;;;;;;4.95;1.75;;;;;;;31.23;52.34;99572.19;5094445;28;20044;-62
2023/07/17 07:55:23;;;;;;;1.98;1.77;;;;;;;31.30;51.93;99568.88;5094399;28;20048;-63
2023/07/17 07:57:52;;;;;;;2.92;1.63;;;;;;;31.42;52.08;99567.81;5093845;28;20051;-63
2023/07/17 08:00:21;;;;;;;4.63;1.45;;;;;;;31.54;52.19;99576.47;5093839;28;20032;-63
2023/07/17 08:02:50;;;;;;;1.27;1.17;;;;;;;31.70;51.72;99576.75;5102236;27;20059;-63
2023/07/17 08:05:19;;;;;;;;;;;;;;;31.80;51.69;99583.72;5135089;27;20042;-63
2023/07/17 08:07:47;;;;;;;1.60;1.23;;;;;;;31.91;51.89;99579.28;5135250;28;19926;-63
2023/07/17 08:10:16;;;;;;;1.50;1.10;;;;;;;32.04;51.60;99579.88;5134841;27;20035;-63
2023/07/17 08:12:47;;;;;;;1.20;1.10;;;;;;;32.11;51.31;99573.88;5119936;27;20062;-62
2023/07/17 08:15:16;;;;;;;2.55;1.35;;;;;;;32.17;50.93;99565.41;5094028;28;20047;-62
2023/07/17 08:17:45;;;;;;;1.05;0.95;;;;;;;32.21;50.81;99571.22;5093580;28;20040;-63
2023/07/17 08:20:14;;;;;;;2.45;1.80;;;;;;;32.29;50.09;99569.56;5093876;28;20044;-63
2023/07/17 08:22:43;;;;;;;1.17;1.00;;;;;;;32.29;50.16;99568.72;5093498;28;20525;-62
2023/07/17 08:25:11;;;;;;;;;;;;;;;32.45;50.83;99568.97;5093948;28;20048;-63
2023/07/17 08:27:40;;;;;;;1.17;0.95;;;;;;;32.48;49.57;99563.41;5093521;28;19924;-63
2023/07/17 08:30:11;;;;;;;2.78;1.35;;;;;;;32.57;49.61;99564.38;5109819;28;20047;-62
2023/07/17 08:32:40;;;;;;;1.00;0.90;;;;;;;32.54;49.17;99565.50;5118214;28;20048;-63
2023/07/17 08:35:10;;;;;;;1.38;1.15;;;;;;;32.53;48.71;99569.13;5118272;28;20047;-63
2023/07/17 08:37:39;;;;;;;6.97;3.38;;;;;;;32.62;48.63;99565.63;5118353;28;20046;-63
2023/07/17 08:40:10;;;;;;;2.75;1.90;;;;;;;32.68;48.90;99559.75;5116873;28;20031;-63
2023/07/17 08:42:45;;;;;;;1.25;1.08;;;;;;;32.73;48.44;99557.50;5117441;28;20047;-63
2023/07/17 08:45:15;;;;;;;3.92;3.17;;;;;;;32.79;48.76;99559.59;5116507;28;20039;-63
2023/07/17 08:47:46;;;;;;;1.73;1.63;;;;;;;32.84;47.89;99554.69;5115872;28;20043;-63
2023/07/17 08:50:16;;;;;;;1.75;1.35;;;;;;;32.80;47.86;99555.94;5115646;27;20046;-63
2023/07/17 08:52:47;;;;;;;1.77;1.38;;;;;;;32.70;47.93;99557.81;5117374;28;20044;-63
2023/07/17 08:55:16;;;;;;;1.65;1.38;;;;;;;32.86;48.36;99559.84;5117942;28;20440;-62
2023/07/17 08:57:48;;;;;;;2.47;1.20;;;;;;;33.06;47.98;99558.81;5117574;28;20059;-63
2023/07/17 09:00:19;;;;;;;3.00;1.60;;;;;;;33.22;47.95;99555.50;5117905;28;20452;-62
2023/07/17 09:02:50;;;;;;;1.33;1.00;;;;;;;33.44;48.01;99558.59;5103597;28;20040;-63
2023/07/17 09:05:19;;;;;;;1.05;0.90;;;;;;;33.46;47.62;99551.34;5097405;28;20067;-63
2023/07/17 09:07:47;;;;;;;;;;;;;;;33.48;47.95;99556.47;5097455;28;20075;-63
2023/07/17 09:10:20;;;;;;;1.60;1.50;;;;;;;33.57;47.88;99552.97;5111912;27;19973;-63
2023/07/17 09:12:51;;;;;;;2.13;1.23;;;;;;;33.65;47.92;99550.38;5137581;27;20400;-63
2023/07/17 09:15:22;;;;;;;2.55;1.20;;;;;;;33.58;47.18;99549.31;5137879;27;20449;-63
2023/07/17 09:17:52;;;;;;;0.80;0.65;;;;;;;33.71;47.03;99557.75;5137798;27;20503;-63
2023/07/17 09:20:21;;;;;;;1.58;1.27;;;;;;;33.72;47.04;99554.09;5132329;27;20048;-63
2023/07/17 09:22:52;;;;;;;2.13;1.30;;;;;;;33.65;46.23;99550.38;5107579;28;20396;-63
2023/07/17 09:25:21;;;;;;;1.25;0.93;;;;;;;33.56;46.28;99556.59;5096747;28;20047;-63
2023/07/17 09:27:52;;;;;;;3.60;1.75;;;;;;;33.60;46.47;99550.84;5096439;28;20044;-63
2023/07/17 09:30:23;;;;;;;1.35;1.17;;;;;;;33.63;46.12;99552.34;5101078;28;20044;-63
2023/07/17 09:32:52;;;;;;;1.83;1.50;;;;;;;33.68;46.36;99542.16;5097317;28;20512;-63
2023/07/17 09:35:23;;;;;;;1.60;1.23;;;;;;;33.55;45.99;99531.94;5096565;28;20044;-63
2023/07/17 09:37:52;;;;;;;1.60;1.20;;;;;;;33.61;46.02;99533.16;5096505;28;20040;-63
2023/07/17 09:40:21;;;;;;;2.05;1.42;;;;;;;33.72;46.12;99530.25;5096281;28;20040;-63
2023/07/17 09:42:54;;;;;;;1.45;1.35;;;;;;;33.88;46.06;99538.38;5096273;28;20036;-63
2023/07/17 09:45:25;;;;;;;1.40;1.15;;;;;;;33.91;45.69;99527.44;5096308;28;20100;-63
2023/07/17 09:47:55;;;;;;;3.28;1.92;;;;;;;33.74;45.41;99528.28;5096268;28;20043;-62
2023/07/17 09:50:26;;;;;;;1.60;1.42;;;;;;;33.72;45.41;99527.63;5111359;28;20044;-63
2023/07/17 09:52:56;;;;;;;1.33;1.23;;;;;;;33.80;45.48;99519.75;5116652;28;20557;-63
2023/07/17 09:55:27;;;;;;;1.15;1.02;;;;;;;33.70;45.52;99511.88;5117036;28;20438;-63
2023/07/17 09:57:59;;;;;;;8.80;1.73;;;;;;;33.55;45.42;99512.56;5116701;28;20553;-62
2023/07/17 10:00:31;;;;;;;1.27;1.17;;;;;;;33.58;45.39;99505.16;5103621;28;20044;-63
2023/07/17 10:03:08;;;;;;;0.90;0.90;;;;;;;33.69;45.57;99514.66;5095829;28;20101;-63
2023/07/17 10:05:38;;;;;;;1.33;1.23;;;;;;;33.89;46.03;99516.19;5107621;28;20047;-63
2023/07/17 10:08:08;;;;;;;3.47;1.30;;;;;;;34.07;45.52;99524.97;5116392;28;20044;-63
2023/07/17 10:10:38;;;;;;;1.50;1.00;;;;;;;34.04;44.89;99519.97;5101241;28;20048;-62
2023/07/17 10:13:10;;;;;;;2.17;1.85;;;;;;;33.84;44.81;99520.25;5095728;28;20059;-64
2023/07/17 10:15:40;;;;;;;2.03;1.45;;;;;;;33.64;45.56;99511.66;5095810;28;20070;-62
2023/07/17 10:18:12;;;;;;;2.55;1.98;;;;;;;33.61;45.41;99501.38;5109041;28;20481;-63
2023/07/17 10:20:52;;;;;;;1.58;1.30;;;;;;;33.90;45.52;99506.41;5116345;28;20067;-63
2023/07/17 10:23:26;;;;;;;1.88;1.45;;;;;;;34.11;45.16;99499.00;5115957;28;20044;-62
2023/07/17 10:26:08;;;;;;;1.38;1.25;;;;;;;34.13;44.44;99502.31;5116277;28;20047;-63
2023/07/17 10:28:38;;;;;;;1.55;1.23;;;;;;;34.23;44.92;99484.50;5114602;28;20130;-62
2023/07/17 10:31:18;;;;;;;1.13;0.93;;;;;;;34.15;45.28;99479.97;5115818;28;20043;-62
2023/07/17 10:33:50;;;;;;;2.92;2.35;;;;;;;34.07;45.55;99484.41;5113923;28;20054;-63
2023/07/17 10:36:20;;;;;;;5.95;5.45;;;;;;;33.83;45.62;99479.72;5113325;28;20131;-65
2023/07/17 10:38:52;;;;;;;2.28;1.00;;;;;;;33.61;45.75;99474.88;5112781;28;20054;-62
2023/07/17 10:41:27;;;;;;;1.23;1.08;;;;;;;33.55;45.69;99467.53;5094187;28;20379;-63
2023/07/17 10:43:58;;;;;;;1.95;1.75;;;;;;;33.41;46.27;99473.34;5095580;28;20040;-63
2023/07/17 10:46:47;;;;;;;1.17;1.08;;;;;;;33.35;45.84;99460.72;5100188;28;20043;-63
2023/07/17 10:49:18;;;;;;;5.70;1.58;;;;;;;33.33;45.56;99460.03;5095071;28;20048;-62
2023/07/17 10:51:48;;;;;;;1.45;1.30;;;;;;;33.33;45.45;99460.03;5094548;28;20040;-63
2023/07/17 10:54:19;;;;;;;1.63;1.30;;;;;;;33.33;45.76;99465.34;5095296;28;20047;-63
2023/07/17 10:56:49;;;;;;;0.75;0.75;;;;;;;33.32;45.56;99458.38;5098009;28;20117;-63
2023/07/17 10:59:19;;;;;;;1.27;1.13;;;;;;;33.25;46.28;99467.91;5112158;28;20054;-63
2023/07/17 11:01:50;;;;;;;3.80;1.20;;;;;;;33.19;45.94;99492.28;5115262;27;20485;-63
2023/07/17 11:04:19;;;;;;;3.58;1.55;;;;;;;32.88;47.41;99475.88;5107070;28;20036;-62
2023/07/17 11:06:48;;;;;;;1.63;1.23;;;;;;;32.55;49.14;99477.28;5100256;28;20093;-63
2023/07/17 11:09:17;;;;;;;2.80;1.85;;;;;;;32.19;50.67;99488.66;5106513;28;20047;-63
2023/07/17 11:11:46;;;;;;;1.25;1.15;;;;;;;31.85;52.36;99505.88;5094304;28;20040;-64
2023/07/17 11:14:15;;;;;;;0.88;0.85;;;;;;;31.56;53.20;99514.66;5094729;28;20040;-64
2023/07/17 11:16:46;;;;;;;1.45;0.90;;;;;;;31.17;54.51;99529.53;5104969;28;20036;-64
2023/07/17 11:19:18;;;;;;;1.38;0.95;;;;;;;30.75;56.88;99527.16;5115251;28;20048;-64
2023/07/17 11:21:49;;;;;;;0.95;0.85;;;;;;;30.46;58.02;99538.41;5115196;28;20118;-64
2023/07/17 11:24:19;;;;;;;8.55;2.17;;;;;;;30.10;57.99;99556.41;5101748;28;20036;-64
2023/07/17 11:26:48;;;;;;;1.38;1.20;;;;;;;29.93;58.67;99578.88;5093807;28;20040;-65
2023/07/17 11:29:17;;;;;;;1.33;1.05;;;;;;;29.70;58.82;99586.00;5095247;28;20510;-64
2023/07/17 11:31:46;;;;;;;2.97;1.85;;;;;;;29.32;58.90;99597.91;5094560;28;20036;-65
2023/07/17 11:34:20;;;;;;;1.70;1.05;;;;;;;29.19;58.49;99590.13;5093217;28;20052;-63
2023/07/17 11:36:49;;;;;;;1.23;1.02;;;;;;;29.02;58.46;99599.31;5093876;28;20065;-64
2023/07/17 11:39:20;;;;;;;0.70;0.70;;;;;;;28.95;58.94;99600.75;5098884;28;20040;-64
2023/07/17 11:41:51;;;;;;;5.75;1.08;;;;;;;28.83;58.77;99633.22;5094198;28;20043;-64
2023/07/17 11:44:24;;;;;;;6.78;1.55;;;;;;;28.71;59.79;99628.91;5094305;28;20036;-64
2023/07/17 11:46:55;;;;;;;1.17;0.88;;;;;;;28.75;61.79;99619.81;5094197;28;20071;-63
2023/07/17 11:49:27;;;;;;;0.57;0.57;;;;;;;28.79;62.29;99631.81;5096875;28;20078;-68